Space — 7SY4071 — position and weather

sailwx.info

Track history (hours):
 
Tides and Currents Weather Stations Pressure Air Temp Water Temp Dewpoint Dewpoint Depression Visibility Wind Speed Wind Dir Waves Ship Positions

Space

Last reported at 2018-Jun-20 16:31 UTC. Time now 2018-Jun-21 08:45 UTC.
Position N 28°08' W 015°26'.

Length 12 m.

Type: Sailing vessel. MMSI: 265629770.

Date/timePositionNaut miles runAvg speedWind from/ knotsBaromVisibWave heightAir tempDewpointWater temp
2018-Jun-20 16:31N 28°08' W 015°26'0 0.0
2018-Jun-20 15:58N 28°08' W 015°26'0 0.0
2018-Jun-20 15:28N 28°08' W 015°26'0 0.0
2018-Jun-20 14:58N 28°08' W 015°26'0 0.0
2018-Jun-20 14:19N 28°08' W 015°26'0 0.0
2018-Jun-20 13:49N 28°08' W 015°26'0 0.0
2018-Jun-20 13:19N 28°08' W 015°26'0 0.0
2018-Jun-20 12:52N 28°08' W 015°26'0 0.0
2018-Jun-20 12:22N 28°08' W 015°26'0 0.0
2018-Jun-20 11:52N 28°08' W 015°26'0 0.0
2018-Jun-20 11:22N 28°08' W 015°26'0 0.0
2018-Jun-20 10:52N 28°08' W 015°26'0 0.0
2018-Jun-20 10:25N 28°08' W 015°26'0 0.0
2018-Jun-20 09:55N 28°08' W 015°26'0 0.0
2018-Jun-20 09:25N 28°08' W 015°26'0 0.0
2018-Jun-20 08:52N 28°08' W 015°26'0 0.0
2018-Jun-20 08:25N 28°08' W 015°26'0 0.0
2018-Jun-20 07:58N 28°08' W 015°26'0 0.0
2018-Jun-20 07:28N 28°08' W 015°26'0 0.0
2018-Jun-20 06:58N 28°08' W 015°26'0 0.0
2018-Jun-20 06:28N 28°08' W 015°26'0 0.0
2018-Jun-20 05:58N 28°08' W 015°26'0 0.0
2018-Jun-20 05:28N 28°08' W 015°26'0 0.0
2018-Jun-20 04:58N 28°08' W 015°26'0 0.0
2018-Jun-20 04:28N 28°08' W 015°26'0 0.0
2018-Jun-20 03:58N 28°08' W 015°26'0 0.0
2018-Jun-20 03:28N 28°08' W 015°26'0 0.0
2018-Jun-20 02:58N 28°08' W 015°26'0 0.0
2018-Jun-20 02:28N 28°08' W 015°26'0 0.0
2018-Jun-20 01:46N 28°08' W 015°26'0 0.0
2018-Jun-20 01:19N 28°08' W 015°26'0 0.0
2018-Jun-20 00:52N 28°08' W 015°26'0 0.0
2018-Jun-20 00:22N 28°08' W 015°26'0 0.0
2018-Jun-19 23:52N 28°08' W 015°26'0 0.0
2018-Jun-19 23:22N 28°08' W 015°26'0 0.0
2018-Jun-19 22:52N 28°08' W 015°26'0 0.0
2018-Jun-19 22:25N 28°08' W 015°26'0 0.0
2018-Jun-19 21:55N 28°08' W 015°26'0 0.0
2018-Jun-19 21:22N 28°08' W 015°26'0 0.0
2018-Jun-19 20:55N 28°08' W 015°26'0 0.0
2018-Jun-19 20:22N 28°08' W 015°26'0 0.0
2018-Jun-19 19:58N 28°08' W 015°26'0 0.0
2018-Jun-19 19:28N 28°08' W 015°26'0 0.0
2018-Jun-19 18:58N 28°08' W 015°26'0 0.0
2018-Jun-19 18:28N 28°08' W 015°26'0 0.0
2018-Jun-19 17:55N 28°08' W 015°26'0 0.0
2018-Jun-19 17:28N 28°08' W 015°26'0 0.0
2018-Jun-19 16:46N 28°08' W 015°26'0 0.0
2018-Jun-19 16:28N 28°08' W 015°26'0 0.0
2018-Jun-19 15:58N 28°08' W 015°26'0 0.0
2018-Jun-19 15:28N 28°08' W 015°26'0 0.0
2018-Jun-19 14:46N 28°08' W 015°26'0 0.0
2018-Jun-19 14:28N 28°08' W 015°26'1 1.5
2018-Jun-19 14:00N 28°07' W 015°25'3 5.2
2018-Jun-19 13:30N 28°05' W 015°23'3 4.9
2018-Jun-19 13:00N 28°03' W 015°22'2 4.8
2018-Jun-19 12:30N 28°00' W 015°22'2 4.8
2018-Jun-19 11:59N 27°58' W 015°21'3 5.1
2018-Jun-19 11:28N 27°55' W 015°21'  
Track history (hours):
 
Tides and Currents Weather Stations Pressure Air Temp Water Temp Dewpoint Dewpoint Depression Visibility Wind Speed Wind Dir Waves Ship Positions

Space

Last reported at 2018-Jun-20 16:31 UTC. Time now 2018-Jun-21 08:45 UTC.
Position N 28°08' W 015°26'.

Length 12 m.

Type: Sailing vessel. MMSI: 265629770.

Date/timePositionNaut miles runAvg speedWind from/ knotsBaromVisibWave heightAir tempDewpointWater temp
2018-Jun-20 16:31N 28°08' W 015°26'0 0.0
2018-Jun-20 15:58N 28°08' W 015°26'0 0.0
2018-Jun-20 15:28N 28°08' W 015°26'0 0.0
2018-Jun-20 14:58N 28°08' W 015°26'0 0.0
2018-Jun-20 14:19N 28°08' W 015°26'0 0.0
2018-Jun-20 13:49N 28°08' W 015°26'0 0.0
2018-Jun-20 13:19N 28°08' W 015°26'0 0.0
2018-Jun-20 12:52N 28°08' W 015°26'0 0.0
2018-Jun-20 12:22N 28°08' W 015°26'0 0.0
2018-Jun-20 11:52N 28°08' W 015°26'0 0.0
2018-Jun-20 11:22N 28°08' W 015°26'0 0.0
2018-Jun-20 10:52N 28°08' W 015°26'0 0.0
2018-Jun-20 10:25N 28°08' W 015°26'0 0.0
2018-Jun-20 09:55N 28°08' W 015°26'0 0.0
2018-Jun-20 09:25N 28°08' W 015°26'0 0.0
2018-Jun-20 08:52N 28°08' W 015°26'0 0.0
2018-Jun-20 08:25N 28°08' W 015°26'0 0.0
2018-Jun-20 07:58N 28°08' W 015°26'0 0.0
2018-Jun-20 07:28N 28°08' W 015°26'0 0.0
2018-Jun-20 06:58N 28°08' W 015°26'0 0.0
2018-Jun-20 06:28N 28°08' W 015°26'0 0.0
2018-Jun-20 05:58N 28°08' W 015°26'0 0.0
2018-Jun-20 05:28N 28°08' W 015°26'0 0.0
2018-Jun-20 04:58N 28°08' W 015°26'0 0.0
2018-Jun-20 04:28N 28°08' W 015°26'0 0.0
2018-Jun-20 03:58N 28°08' W 015°26'0 0.0
2018-Jun-20 03:28N 28°08' W 015°26'0 0.0
2018-Jun-20 02:58N 28°08' W 015°26'0 0.0
2018-Jun-20 02:28N 28°08' W 015°26'0 0.0
2018-Jun-20 01:46N 28°08' W 015°26'0 0.0
2018-Jun-20 01:19N 28°08' W 015°26'0 0.0
2018-Jun-20 00:52N 28°08' W 015°26'0 0.0
2018-Jun-20 00:22N 28°08' W 015°26'0 0.0
2018-Jun-19 23:52N 28°08' W 015°26'0 0.0
2018-Jun-19 23:22N 28°08' W 015°26'0 0.0
2018-Jun-19 22:52N 28°08' W 015°26'0 0.0
2018-Jun-19 22:25N 28°08' W 015°26'0 0.0
2018-Jun-19 21:55N 28°08' W 015°26'0 0.0
2018-Jun-19 21:22N 28°08' W 015°26'0 0.0
2018-Jun-19 20:55N 28°08' W 015°26'0 0.0
2018-Jun-19 20:22N 28°08' W 015°26'0 0.0
2018-Jun-19 19:58N 28°08' W 015°26'0 0.0
2018-Jun-19 19:28N 28°08' W 015°26'0 0.0
2018-Jun-19 18:58N 28°08' W 015°26'0 0.0
2018-Jun-19 18:28N 28°08' W 015°26'0 0.0
2018-Jun-19 17:55N 28°08' W 015°26'0 0.0
2018-Jun-19 17:28N 28°08' W 015°26'0 0.0
2018-Jun-19 16:46N 28°08' W 015°26'0 0.0
2018-Jun-19 16:28N 28°08' W 015°26'0 0.0
2018-Jun-19 15:58N 28°08' W 015°26'0 0.0
2018-Jun-19 15:28N 28°08' W 015°26'0 0.0
2018-Jun-19 14:46N 28°08' W 015°26'0 0.0
2018-Jun-19 14:28N 28°08' W 015°26'1 1.5
2018-Jun-19 14:00N 28°07' W 015°25'3 5.2
2018-Jun-19 13:30N 28°05' W 015°23'3 4.9
2018-Jun-19 13:00N 28°03' W 015°22'2 4.8
2018-Jun-19 12:30N 28°00' W 015°22'2 4.8
2018-Jun-19 11:59N 27°58' W 015°21'3 5.1
2018-Jun-19 11:28N 27°55' W 015°21'  

Dump ship's entire track history